ADDS METAR Data INFO
IDs: Format: Raw Decoded Include TAF

Data at: 0213 UTC 17 Aug 2018

PAKN 170154Z 23005KT 10SM SCT055 16/08 A2995 RMK AO2 SLP143 T01560078
PAKN 170054Z 20005KT 10SM BKN100 14/11 A2996 RMK AO2 RAE49 SLP144 P0006 T01440106
PAKN 170024Z 20005KT 6SM -RA BR BKN050 OVC075 12/10 A2996 RMK AO2 P0006 T01170100
PAKN 170016Z 21005KT 2 1/2SM RA BR BKN048 OVC060 12/10 A2996 RMK AO2 P0006 T01170100
PAKN 162354Z 18009KT 10SM -RA FEW037 BKN047 OVC055 12/09 A2996 RMK AO2 RAB43 SLP145 P0000 60000 T01220089 10172 20111 55000
PAKN 162254Z 00000KT 10SM BKN070 OVC080 16/07 A2995 RMK AO2 SLP143 T01610072
PAKN 162154Z 00000KT 10SM SCT060 BKN080 15/08 A2996 RMK AO2 RAE2058 SLP144 P0000 T01500083
PAKN 162054Z 00000KT 10SM -RA FEW037 BKN047 OVC060 14/09 A2996 RMK AO2 RAB43 SLP146 P0000 60000 T01390094 58001
PAKN 161954Z 00000KT 10SM OVC041 13/09 A2996 RMK AO2 SLP146 T01330089
PAKN 161854Z 00000KT 10SM SCT042 BKN050 OVC085 12/09 A2996 RMK AO2 SLP146 T01170094
PAKN 161833Z 00000KT 10SM SCT029 SCT038 OVC060 12/09 A2996 RMK AO2 T01170094
PAKN 161808Z 00000KT 10SM FEW004 BKN029 OVC055 11/09 A2996 RMK AO2 T01110094
PAKN 161754Z 00000KT 10SM FEW003 SCT030 OVC055 11/09 A2996 RMK AO2 RAE24 SLP146 P0000 60000 T01110094 10111 20094 51002
PAKN 161702Z 00000KT 10SM -RA FEW003 SCT030 OVC055 11/09 A2996 RMK AO2 P0000 T01060089
PAKN 161654Z 00000KT 9SM -RA OVC055 11/09 A2996 RMK AO2 RAB21 SLP146 P0000 T01060089
PAKN 161554Z AUTO 00000KT 10SM FEW032 FEW045 OVC055 10/08 A2996 RMK AO2 SLP145 T01000083 TSNO
PAKN 161454Z AUTO 00000KT 9SM BKN034 OVC050 09/08 A2996 RMK AO2 SLP144 60000 T00940083 52001 TSNO
PAKN 161354Z AUTO 00000KT 10SM FEW040 OVC050 09/08 A2996 RMK AO2 RAE13 SLP144 P0000 T00940083 TSNO
PAKN 161254Z AUTO 23003KT 10SM -RA OVC048 10/08 A2995 RMK AO2 RAE1156B26 SLP143 P0000 T01000083 TSNO
PAKN 161154Z COR 00000KT 7SM -RA OVC055 09/08 A2995 RMK AO2 SLP143 P0001 60001 71014 T00940083 10111 20083 53003
PAKN 161054Z 14003KT 9SM -RA SCT050 OVC065 09/08 A2995 RMK AO2 RAB33 SLP141 P0000 T00940083
PAKN 160954Z 00000KT 8SM SCT046 OVC065 09/08 A2995 RMK AO2 SLP141 T00890078
PAKN 160854Z 00000KT 10SM OVC055 09/07 A2995 RMK AO2 SLP140 T00890072 401440083 51005
PAKN 160754Z 00000KT 10SM BKN070 09/07 A2994 RMK AO2 SLP139 T00890072
PAKN 160701Z 00000KT 10SM BKN070 09/08 A2994 RMK AO2 T00890078
PAKN 160654Z 00000KT 10SM SCT020 BKN028 09/07 A2994 RMK AO2 SLPNO T00940072
PAKN 160608Z 00000KT 10SM SCT020 BKN028 11/08 A2993 RMK AO2 T01110083
PAKN 160601Z 30003KT 10SM FEW055 BKN070 11/08 A2993 RMK AO2 T01110083
PAKN 160554Z 29003KT 10SM SCT020 BKN028 11/08 A2993 RMK AO2 SLP135 60001 T01110083 10144 20111 53004
PAKN 160454Z 30004KT 10SM SCT020 BKN026 12/09 A2992 RMK AO2 SLP133 T01220089
PAKN 160354Z 32005KT 10SM SCT020 BKN026 13/09 A2992 RMK AO2 SLP131 T01330089
PAKN 160346Z 33004KT 10SM FEW017 BKN026 BKN040 13/09 A2992 RMK AO2 T01330089
PAKN 160254Z 31004KT 10SM FEW060 BKN070 OVC085 13/09 A2992 RMK AO2 SLP132 60001 T01330094 58003
PAKN 160154Z 30005KT 10SM SCT043 OVC055 12/10 A2992 RMK AO2 RAE23 SLP133 P0000 T01220100
PAKN 160118Z 31005KT 4SM -RA BR SCT024 BKN037 OVC045 12/10 A2993 RMK AO2 P0000 T01220100
PAKN 160101Z 30007KT 4SM -RA BR FEW010 SCT017 OVC024 11/09 A2993 RMK AO2 P0000 T01110094
PAKN 160054Z 30005KT 4SM -RA BR BKN031 BKN035 OVC050 11/09 A2993 RMK AO2 SLP134 P0001 T01110094
PAKN 152354Z 20007KT 10SM -RA BKN035 BKN050 OVC090 13/09 A2993 RMK AO2 RAB52 SLP135 P0000 6//// T01280089 58002
PAKN 152254Z 17005KT 10SM BKN022 BKN027 OVC037 13/08 A2993 RMK AO2 RAB05E17B40E53 SLP136 P0000 T01330083
PAKN 152154Z VRB04KT 10SM BKN020 OVC030 13/09 A2994 RMK AO2 RAB22E33 SLP137 P0000 T01280089
PAKN 152101Z 19006KT 10SM SCT016 SCT022 OVC033 13/08 A2994 RMK AO2 T01330083
PAKN 152054Z 20005KT 10SM BKN013 BKN019 OVC045 13/08 A2994 RMK AO2 RAB1958E09 SLP137 P0000 6//// T01280083 50001
PAKN 151954Z 20005KT 10SM BKN013 BKN022 OVC049 12/09 A2994 RMK AO2 SLP138 T01220089 $
PAKN 151946Z COR 19005KT 10SM BKN013 BKN022 OVC049 12/09 A2994 RMK AO2 T01220089 $
PAKN 151854Z COR 19007KT 10SM BKN010 BKN015 OVC044 A2994 RMK AO2 SLPNO PNO $
PAKN 151806Z 20005KT 8SM -RA BKN006 OVC036 11/09 A2993 RMK AO2 P0000 T01060094
PAKN 151754Z COR 19006KT 8SM -RA BKN006 OVC036 11/09 A2993 RMK AO2 RAB04E33B50 SLP136 P0000 60000 T01060094 10106 20094
PAKN 151734Z 20007KT 9SM FEW006 OVC029 11/09 A2993 RMK AO2 RAB04E33 P0000 T01060094 $
PAKN 151654Z 20005KT 7SM -RA SCT004 OVC022 10/09 A2993 RMK AO2 RAB53 SLP135 P0000 T01000089
PAKN 151635Z 19004KT 4SM BR FEW004 BKN022 OVC032 10/09 A2993 RMK AO2 T01000089
PAKN 151554Z 20006KT 7SM FEW005 BKN032 OVC050 10/09 A2993 RMK AO2 SLP133 T01000089 TSNO
PAKN 151528Z AUTO 19008KT 7SM FEW005 BKN016 OVC044 10/09 A2993 RMK AO2 T01000089 TSNO
PAKN 151454Z AUTO 16005KT 8SM FEW005 OVC036 10/09 A2993 RMK AO2 SLP134 T01000089 56003 TSNO
PAKN 151441Z AUTO 16003KT 8SM FEW004 SCT027 OVC034 10/09 A2993 RMK AO2 T01000089 TSNO
PAKN 151426Z AUTO 16004KT 8SM SCT005 BKN022 OVC027 10/09 A2993 RMK AO2 T01000089 TSNO